createdAt,value
2018-05-12T00:00:21.992Z,0
2018-05-12T00:01:31.737Z,0
2018-05-12T00:02:41.212Z,0
2018-05-12T00:03:51.219Z,0
2018-05-12T00:05:00.970Z,0
2018-05-12T00:06:10.988Z,0
2018-05-12T00:07:20.736Z,0
2018-05-12T00:08:30.748Z,0
2018-05-12T00:09:40.763Z,0
2018-05-12T00:10:50.250Z,0
2018-05-12T00:12:00.008Z,0
2018-05-12T00:13:09.749Z,0
2018-05-12T00:14:19.763Z,0
2018-05-12T00:15:29.776Z,0
2018-05-12T00:16:39.526Z,0
2018-05-12T00:17:49.540Z,0
2018-05-12T00:18:59.565Z,0
2018-05-12T00:20:09.309Z,0
2018-05-12T00:21:19.058Z,0
2018-05-12T00:22:28.796Z,0
2018-05-12T00:23:38.543Z,0
2018-05-12T00:24:48.570Z,0
2018-05-12T00:25:58.580Z,0
2018-05-12T00:27:08.596Z,0
2018-05-12T00:28:18.343Z,0
2018-05-12T00:29:27.556Z,0
2018-05-12T00:30:37.032Z,0
2018-05-12T00:31:46.782Z,0
2018-05-12T00:32:56.800Z,0
2018-05-12T00:34:06.812Z,0
2018-05-12T00:35:16.552Z,0
2018-05-12T00:36:26.297Z,0
2018-05-12T00:37:36.316Z,0
2018-05-12T00:38:46.143Z,0
2018-05-12T00:39:56.151Z,0
2018-05-12T00:41:06.159Z,0
2018-05-12T00:42:15.904Z,0
2018-05-12T00:43:24.843Z,0
2018-05-12T00:44:34.613Z,0
2018-05-12T00:45:44.621Z,0
2018-05-12T00:46:54.630Z,0
2018-05-12T00:48:04.373Z,0
2018-05-12T00:49:14.123Z,0
2018-05-12T00:50:24.133Z,0
2018-05-12T00:51:34.139Z,0
2018-05-12T00:52:43.884Z,0
2018-05-12T00:53:53.916Z,0
2018-05-12T00:55:04.004Z,0
2018-05-12T00:56:13.207Z,0
2018-05-12T00:57:23.222Z,0
2018-05-12T00:58:32.968Z,0
2018-05-12T00:59:42.984Z,0
2018-05-12T01:00:52.455Z,0
2018-05-12T01:02:02.195Z,0
2018-05-12T01:03:12.219Z,0
2018-05-12T01:04:21.961Z,0
2018-05-12T01:05:31.994Z,0
2018-05-12T01:06:41.740Z,0
2018-05-12T01:07:51.568Z,0
2018-05-12T01:09:01.316Z,0
2018-05-12T01:10:11.324Z,0
2018-05-12T01:11:21.348Z,0
2018-05-12T01:12:31.362Z,0
2018-05-12T01:13:41.615Z,0
2018-05-12T01:14:51.642Z,0
2018-05-12T01:16:01.701Z,0
2018-05-12T01:17:11.447Z,0
2018-05-12T01:18:21.458Z,0
2018-05-12T01:19:30.941Z,0
2018-05-12T01:20:40.683Z,0
2018-05-12T01:21:50.695Z,0
2018-05-12T01:23:00.709Z,0
2018-05-12T01:24:10.739Z,0
2018-05-12T01:25:20.486Z,0
2018-05-12T01:26:30.497Z,0
2018-05-12T01:27:39.805Z,0
2018-05-12T01:28:49.816Z,0
2018-05-12T01:29:59.826Z,0
2018-05-12T01:31:09.573Z,0
2018-05-12T01:32:19.320Z,0
2018-05-12T01:33:29.331Z,0
2018-05-12T01:34:39.084Z,0
2018-05-12T01:35:49.165Z,0
2018-05-12T01:36:59.186Z,0
2018-05-12T01:38:08.729Z,0
2018-05-12T01:39:18.745Z,0
2018-05-12T01:40:28.757Z,0
2018-05-12T01:41:38.769Z,0
2018-05-12T01:42:48.787Z,0
2018-05-12T01:43:58.527Z,0
2018-05-12T01:45:08.277Z,0
2018-05-12T01:46:18.288Z,0
2018-05-12T01:47:28.308Z,0
2018-05-12T01:48:38.054Z,0
2018-05-12T01:49:48.064Z,0
2018-05-12T01:50:58.075Z,0
2018-05-12T01:52:07.551Z,0
2018-05-12T01:53:17.296Z,4
2018-05-12T01:54:27.317Z,4
2018-05-12T01:55:37.324Z,4
2018-05-12T01:56:47.341Z,0
2018-05-12T01:57:57.361Z,0
2018-05-12T01:59:06.836Z,4
2018-05-12T02:00:16.846Z,4
2018-05-12T02:01:26.588Z,4
2018-05-12T02:02:36.484Z,4
2018-05-12T02:03:46.492Z,4
2018-05-12T02:04:56.505Z,4
2018-05-12T02:06:06.518Z,8
2018-05-12T02:07:16.257Z,4
2018-05-12T02:08:25.994Z,8
2018-05-12T02:09:36.026Z,4
2018-05-12T02:10:45.765Z,8
2018-05-12T02:11:55.773Z,12
2018-05-12T02:13:05.781Z,8
2018-05-12T02:14:15.258Z,12
2018-05-12T02:15:25.276Z,16
2018-05-12T02:16:35.020Z,16
2018-05-12T02:17:44.498Z,16
2018-05-12T02:18:54.242Z,20
2018-05-12T02:20:04.313Z,24
2018-05-12T02:21:14.070Z,20
2018-05-12T02:22:23.814Z,24
2018-05-12T02:23:33.829Z,28
2018-05-12T02:24:43.572Z,28
2018-05-12T02:25:53.317Z,32
2018-05-12T02:27:03.334Z,40
2018-05-12T02:28:12.809Z,36
2018-05-12T02:29:22.556Z,40
2018-05-12T02:30:32.911Z,44
2018-05-12T02:31:42.939Z,44
2018-05-12T02:32:52.957Z,52
2018-05-12T02:34:02.789Z,56
2018-05-12T02:35:12.831Z,60
2018-05-12T02:36:22.572Z,64
2018-05-12T02:37:32.387Z,72
2018-05-12T02:38:42.130Z,76
2018-05-12T02:39:51.877Z,76
2018-05-12T02:41:01.624Z,84
2018-05-12T02:42:11.105Z,88
2018-05-12T02:43:20.862Z,88
2018-05-12T02:44:30.337Z,92
2018-05-12T02:45:39.825Z,104
2018-05-12T02:46:49.580Z,116
2018-05-12T02:47:59.327Z,124
2018-05-12T02:49:08.805Z,132
2018-05-12T02:50:18.287Z,140
2018-05-12T02:51:27.767Z,148
2018-05-12T02:52:37.792Z,152
2018-05-12T02:53:47.808Z,164
2018-05-12T02:54:57.558Z,172
2018-05-12T02:56:07.575Z,188
2018-05-12T02:57:17.588Z,200
2018-05-12T02:58:27.342Z,204
2018-05-12T02:59:37.354Z,212
2018-05-12T03:03:31.986Z,252
2018-05-12T03:04:42.013Z,264
2018-05-12T03:05:51.770Z,272
2018-05-12T03:07:01.595Z,280
2018-05-12T03:08:11.334Z,292
2018-05-12T03:09:21.187Z,308
2018-05-12T03:10:30.945Z,320
2018-05-12T03:11:40.961Z,324
2018-05-12T03:12:50.446Z,332
2018-05-12T03:14:00.468Z,344
2018-05-12T03:15:10.481Z,368
2018-05-12T03:16:20.227Z,388
2018-05-12T03:17:30.243Z,396
2018-05-12T03:18:39.981Z,396
2018-05-12T03:19:49.717Z,400
2018-05-12T03:20:59.760Z,400
2018-05-12T03:22:09.236Z,384
2018-05-12T03:23:18.975Z,376
2018-05-12T03:24:29.071Z,392
2018-05-12T03:25:39.077Z,420
2018-05-12T03:26:48.834Z,440
2018-05-12T03:27:58.841Z,452
2018-05-12T03:29:08.600Z,448
2018-05-12T03:30:18.618Z,436
2018-05-12T03:31:28.637Z,456
2018-05-12T03:32:38.387Z,500
2018-05-12T03:33:47.873Z,532
2018-05-12T03:34:57.088Z,528
2018-05-12T03:36:06.840Z,516
2018-05-12T03:37:16.590Z,544
2018-05-12T03:38:26.700Z,600
2018-05-12T03:39:36.715Z,648
2018-05-12T03:40:46.455Z,656
2018-05-12T03:41:55.930Z,656
2018-05-12T03:43:05.671Z,680
2018-05-12T03:44:15.148Z,708
2018-05-12T03:45:25.165Z,752
2018-05-12T03:46:35.182Z,792
2018-05-12T03:47:44.921Z,844
2018-05-12T03:48:54.930Z,904
2018-05-12T03:50:04.674Z,960
2018-05-12T03:51:14.419Z,1004
2018-05-12T03:52:24.431Z,1032
2018-05-12T03:53:34.185Z,1080
2018-05-12T03:54:43.935Z,1128
2018-05-12T03:55:53.678Z,1128
2018-05-12T03:57:03.420Z,1172
2018-05-12T03:58:13.160Z,1192
2018-05-12T03:59:22.367Z,1144
2018-05-12T04:00:32.386Z,1088
2018-05-12T04:01:41.868Z,1100
2018-05-12T04:02:51.605Z,1224
2018-05-12T04:04:01.618Z,1276
2018-05-12T04:05:10.825Z,1296
2018-05-12T04:06:20.851Z,1332
2018-05-12T04:07:30.872Z,1340
2018-05-12T04:08:40.264Z,1292
2018-05-12T04:09:50.023Z,1244
2018-05-12T04:10:59.764Z,1128
2018-05-12T04:12:09.248Z,1028
2018-05-12T04:13:19.359Z,996
2018-05-12T04:14:28.837Z,968
2018-05-12T04:15:38.581Z,976
2018-05-12T04:16:48.328Z,1000
2018-05-12T04:17:58.081Z,1004
2018-05-12T04:19:08.094Z,1056
2018-05-12T04:20:18.107Z,1080
2018-05-12T04:21:27.844Z,1072
2018-05-12T04:22:37.588Z,1080
2018-05-12T04:23:47.602Z,1112
2018-05-12T04:24:57.618Z,1124
2018-05-12T04:26:07.636Z,1120
2018-05-12T04:27:17.658Z,1140
2018-05-12T04:28:27.671Z,1168
2018-05-12T04:29:37.680Z,1208
2018-05-12T04:30:47.690Z,1288
2018-05-12T04:31:57.162Z,1368
2018-05-12T04:33:07.172Z,1392
2018-05-12T04:34:17.178Z,1444
2018-05-12T04:35:26.934Z,1520
2018-05-12T04:36:36.946Z,1572
2018-05-12T04:37:46.954Z,1612
2018-05-12T04:38:56.964Z,1624
2018-05-12T04:40:06.180Z,1556
2018-05-12T04:41:15.653Z,1444
2018-05-12T04:42:25.672Z,1332
2018-05-12T04:43:35.681Z,1220
2018-05-12T04:44:45.698Z,1140
2018-05-12T04:45:55.703Z,1104
2018-05-12T04:47:05.446Z,1148
2018-05-12T04:48:15.473Z,1256
2018-05-12T04:49:25.217Z,1384
2018-05-12T04:50:34.956Z,1464
2018-05-12T04:51:44.167Z,1520
2018-05-12T04:52:53.646Z,1564
2018-05-12T04:54:03.666Z,1604
2018-05-12T04:55:13.527Z,1632
2018-05-12T04:56:23.263Z,1656
2018-05-12T04:57:33.017Z,1676
2018-05-12T04:58:43.034Z,1788
2018-05-12T04:59:53.052Z,1912
2018-05-12T05:01:02.799Z,1876
2018-05-12T05:02:12.274Z,1756
2018-05-12T05:03:22.024Z,1888
2018-05-12T05:04:31.768Z,2108
2018-05-12T05:05:41.785Z,2260
2018-05-12T05:06:51.261Z,2376
2018-05-12T05:08:01.000Z,2448
2018-05-12T05:09:10.743Z,2500
2018-05-12T05:10:20.750Z,2520
2018-05-12T05:11:30.766Z,2512
2018-05-12T05:12:40.779Z,2520
2018-05-12T05:13:50.798Z,2560
2018-05-12T05:15:00.806Z,2580
2018-05-12T05:16:10.554Z,2588
2018-05-12T05:17:20.567Z,2556
2018-05-12T05:18:30.575Z,2460
2018-05-12T05:19:40.315Z,2336
2018-05-12T05:20:50.059Z,2324
2018-05-12T05:22:00.085Z,2500
2018-05-12T05:23:10.104Z,2704
2018-05-12T05:24:19.314Z,2808
2018-05-12T05:25:29.058Z,2804
2018-05-12T05:26:39.074Z,2824
2018-05-12T05:27:48.550Z,2900
2018-05-12T05:28:58.565Z,2964
2018-05-12T05:30:08.583Z,3008
2018-05-12T05:31:18.595Z,2980
2018-05-12T05:32:28.067Z,2952
2018-05-12T05:33:38.086Z,2920
2018-05-12T05:34:47.842Z,2916
2018-05-12T05:35:57.866Z,2960
2018-05-12T05:37:07.339Z,3040
2018-05-12T05:38:17.356Z,3140
2018-05-12T05:39:26.843Z,3220
2018-05-12T05:40:36.586Z,3252
2018-05-12T05:41:46.306Z,3256
2018-05-12T05:42:56.432Z,3260
2018-05-12T05:44:06.444Z,3236
2018-05-12T05:45:16.186Z,3236
2018-05-12T05:46:26.203Z,3308
2018-05-12T05:47:35.946Z,3280
2018-05-12T05:48:45.960Z,3172
2018-05-12T05:49:55.979Z,3128
2018-05-12T05:51:05.730Z,3192
2018-05-12T05:52:15.207Z,3308
2018-05-12T05:53:24.682Z,3408
2018-05-12T05:54:34.704Z,3472
2018-05-12T05:55:44.446Z,3488
2018-05-12T05:56:54.203Z,3440
2018-05-12T05:58:04.226Z,3344
2018-05-12T05:59:13.701Z,3256
2018-05-12T06:00:23.718Z,3176
2018-05-12T06:01:33.460Z,3124
2018-05-12T06:02:43.208Z,3108
2018-05-12T06:03:52.684Z,3132
2018-05-12T06:05:02.786Z,3116
2018-05-12T06:06:11.995Z,3064
2018-05-12T06:07:21.979Z,2916
2018-05-12T06:08:31.991Z,2832
2018-05-12T06:09:41.740Z,2964
2018-05-12T06:10:51.758Z,3240
2018-05-12T06:12:01.765Z,3724
2018-05-12T06:13:11.516Z,4100
2018-05-12T06:14:21.533Z,4408
2018-05-12T06:15:31.009Z,4480
2018-05-12T06:16:41.021Z,4524
2018-05-12T06:17:50.495Z,4672
2018-05-12T06:18:59.968Z,4880
2018-05-12T06:20:09.995Z,5112
2018-05-12T06:21:19.571Z,5304
2018-05-12T06:22:29.591Z,5460
2018-05-12T06:23:39.339Z,5592
2018-05-12T06:24:49.427Z,5704
2018-05-12T06:25:59.474Z,5752
2018-05-12T06:27:09.212Z,5620
2018-05-12T06:28:18.958Z,5356
2018-05-12T06:29:28.708Z,5208
2018-05-12T06:30:38.456Z,5260
2018-05-12T06:31:48.471Z,5376
2018-05-12T06:32:58.483Z,5380
2018-05-12T06:34:08.228Z,5208
2018-05-12T06:35:17.973Z,4932
2018-05-12T06:36:27.988Z,4668
2018-05-12T06:37:38.003Z,4460
2018-05-12T06:38:48.016Z,4312
2018-05-12T06:39:58.023Z,4216
2018-05-12T06:41:07.775Z,4164
2018-05-12T06:42:17.254Z,4160
2018-05-12T06:43:27.268Z,4216
2018-05-12T06:44:37.297Z,4296
2018-05-12T06:45:47.326Z,4372
2018-05-12T06:46:57.079Z,4456
2018-05-12T06:48:07.090Z,4540
2018-05-12T06:49:16.837Z,4572
2018-05-12T06:50:26.584Z,4536
2018-05-12T06:51:36.325Z,4452
2018-05-12T06:52:46.554Z,4416
2018-05-12T06:53:56.648Z,4464
2018-05-12T06:55:06.393Z,4620
2018-05-12T06:56:16.405Z,4848
2018-05-12T06:57:26.147Z,5008
2018-05-12T06:58:35.620Z,5100
2018-05-12T06:59:45.093Z,5220
2018-05-12T07:00:55.110Z,5232
2018-05-12T07:02:05.127Z,5128
2018-05-12T07:03:15.144Z,5024
2018-05-12T07:04:25.160Z,5020
2018-05-12T07:05:35.176Z,5136
2018-05-12T07:06:45.185Z,5376
2018-05-12T07:07:55.203Z,5616
2018-05-12T07:09:05.215Z,5808
2018-05-12T07:10:14.959Z,5944
2018-05-12T07:11:24.978Z,6140
2018-05-12T07:12:34.815Z,6260
2018-05-12T07:13:44.559Z,6232
2018-05-12T07:14:54.575Z,6112
2018-05-12T07:16:04.325Z,6068
2018-05-12T07:17:14.472Z,6156
2018-05-12T07:18:24.210Z,6356
2018-05-12T07:19:34.215Z,6648
2018-05-12T07:20:43.687Z,6940
2018-05-12T07:21:53.707Z,7148
2018-05-12T07:23:03.455Z,7268
2018-05-12T07:24:13.196Z,7320
2018-05-12T07:25:23.206Z,7328
2018-05-12T07:26:33.223Z,7356
2018-05-12T07:27:42.962Z,7408
2018-05-12T07:28:52.978Z,7348
2018-05-12T07:30:02.730Z,7116
2018-05-12T07:31:12.740Z,6740
2018-05-12T07:32:22.750Z,6304
2018-05-12T07:33:32.765Z,5928
2018-05-12T07:34:42.780Z,5680
2018-05-12T07:35:52.791Z,5524
2018-05-12T07:37:02.906Z,5304
2018-05-12T07:38:12.920Z,4952
2018-05-12T07:39:22.926Z,4544
2018-05-12T07:40:32.943Z,4256
2018-05-12T07:41:42.696Z,4196
2018-05-12T07:42:52.186Z,4324
2018-05-12T07:44:02.198Z,4592
2018-05-12T07:45:11.700Z,4964
2018-05-12T07:46:21.447Z,5424
2018-05-12T07:47:31.459Z,5816
2018-05-12T07:48:41.205Z,6008
2018-05-12T07:49:50.412Z,6192
2018-05-12T07:51:00.153Z,6380
2018-05-12T07:52:09.902Z,6388
2018-05-12T07:53:19.919Z,6240
2018-05-12T07:54:29.933Z,6152
2018-05-12T07:55:39.951Z,6148
2018-05-12T07:56:50.001Z,6268
2018-05-12T07:58:00.028Z,6608
2018-05-12T07:59:09.242Z,7092
2018-05-12T08:00:18.796Z,7628
2018-05-12T08:01:28.547Z,8004
2018-05-12T08:02:38.294Z,8336
2018-05-12T08:03:48.039Z,8724
2018-05-12T08:04:57.778Z,9148
2018-05-12T08:06:07.577Z,9636
2018-05-12T08:07:17.319Z,10216
2018-05-12T08:08:27.330Z,10740
2018-05-12T08:09:37.348Z,10824
2018-05-12T08:10:47.096Z,10504
2018-05-12T08:11:57.164Z,10292
2018-05-12T08:13:07.177Z,10528
2018-05-12T08:14:17.201Z,11096
2018-05-12T08:15:26.944Z,11360
2018-05-12T08:16:37.046Z,11196
2018-05-12T08:17:46.791Z,11008
2018-05-12T08:18:56.534Z,10368
2018-05-12T08:20:06.557Z,9580
2018-05-12T08:21:16.660Z,8928
2018-05-12T08:22:26.671Z,8492
2018-05-12T08:23:36.681Z,8228
2018-05-12T08:24:46.694Z,7984
2018-05-12T08:25:56.707Z,8092
2018-05-12T08:27:06.555Z,8472
2018-05-12T08:28:16.564Z,8912
2018-05-12T08:29:26.576Z,9144
2018-05-12T08:30:36.055Z,9228
2018-05-12T08:31:45.535Z,9612
2018-05-12T08:32:55.556Z,10624
2018-05-12T08:34:05.298Z,12180
2018-05-12T08:35:15.051Z,13708
2018-05-12T08:36:25.074Z,14136
2018-05-12T08:37:35.088Z,13920
2018-05-12T08:38:44.569Z,13192
2018-05-12T08:39:54.330Z,11488
2018-05-12T08:41:04.079Z,10060
2018-05-12T08:42:13.830Z,9200
2018-05-12T08:43:23.580Z,8672
2018-05-12T08:44:33.601Z,8292
2018-05-12T08:45:43.364Z,8164
2018-05-12T08:46:53.474Z,8400
2018-05-12T08:48:03.488Z,8988
2018-05-12T08:49:13.241Z,9576
2018-05-12T08:50:22.991Z,9840
2018-05-12T08:51:33.026Z,9752
2018-05-12T08:52:43.050Z,9668
2018-05-12T08:53:53.062Z,9900
2018-05-12T08:55:03.094Z,10380
2018-05-12T08:56:12.844Z,10816
2018-05-12T08:57:22.864Z,10820
2018-05-12T08:58:32.612Z,10380
2018-05-12T08:59:42.642Z,10004
2018-05-12T09:00:52.666Z,10052
2018-05-12T09:02:02.683Z,10312
2018-05-12T09:03:12.696Z,10348
2018-05-12T09:04:22.709Z,10604
2018-05-12T09:05:32.187Z,11596
2018-05-12T09:06:41.935Z,13220
2018-05-12T09:07:51.689Z,13924
2018-05-12T09:09:01.432Z,14032
2018-05-12T09:10:10.916Z,14488
2018-05-12T09:11:20.662Z,13976
2018-05-12T09:12:30.140Z,12820
2018-05-12T09:13:39.888Z,11684
2018-05-12T09:14:49.638Z,11004
2018-05-12T09:15:59.400Z,10940
2018-05-12T09:17:09.156Z,11796
2018-05-12T09:18:18.644Z,13484
2018-05-12T09:19:28.619Z,15452
2018-05-12T09:20:38.363Z,17024
2018-05-12T09:21:48.119Z,17600
2018-05-12T09:22:57.610Z,17824
2018-05-12T09:24:07.630Z,16704
2018-05-12T09:25:17.655Z,13972
2018-05-12T09:26:27.676Z,13088
2018-05-12T09:27:37.709Z,14152
2018-05-12T09:28:47.456Z,15712
2018-05-12T09:29:57.199Z,17120
2018-05-12T09:31:06.956Z,17536
2018-05-12T09:32:16.968Z,17152
2018-05-12T09:33:26.997Z,16608
2018-05-12T09:34:37.024Z,16704
2018-05-12T09:35:47.040Z,15416
2018-05-12T09:36:56.790Z,13464
2018-05-12T09:38:06.533Z,12468
2018-05-12T09:39:16.555Z,12444
2018-05-12T09:40:26.567Z,12852
2018-05-12T09:41:36.579Z,13620
2018-05-12T09:42:46.055Z,14200
2018-05-12T09:43:55.806Z,14128
2018-05-12T09:45:05.910Z,14552
2018-05-12T09:46:15.945Z,14800
2018-05-12T09:47:25.694Z,14432
2018-05-12T09:48:35.458Z,14672
2018-05-12T09:49:45.495Z,15396
2018-05-12T09:50:54.977Z,16800
2018-05-12T09:52:04.192Z,17504
2018-05-12T09:53:14.204Z,16832
2018-05-12T09:54:23.693Z,16372
2018-05-12T09:55:33.439Z,16052
2018-05-12T09:56:43.461Z,15740
2018-05-12T09:57:53.209Z,16132
2018-05-12T09:59:02.698Z,16212
2018-05-12T10:00:12.472Z,16704
2018-05-12T10:01:22.219Z,18176
2018-05-12T10:02:31.702Z,19136
2018-05-12T10:03:41.184Z,19104
2018-05-12T10:04:51.213Z,19552
2018-05-12T10:06:00.423Z,20352
2018-05-12T10:07:10.177Z,18880
2018-05-12T10:08:20.023Z,15676
2018-05-12T10:09:30.040Z,13672
2018-05-12T10:10:39.794Z,12980
2018-05-12T10:11:49.274Z,13640
2018-05-12T10:12:59.563Z,14356
2018-05-12T10:14:09.672Z,14456
2018-05-12T10:15:19.427Z,14084
2018-05-12T10:16:29.524Z,14316
2018-05-12T10:17:39.010Z,14732
2018-05-12T10:18:48.228Z,15124
2018-05-12T10:19:58.060Z,15200
2018-05-12T10:21:07.934Z,15092
2018-05-12T10:22:18.454Z,15592
2018-05-12T10:23:28.228Z,16896
2018-05-12T10:24:38.245Z,17184
2018-05-12T10:25:48.051Z,16300
2018-05-12T10:26:57.802Z,15828
2018-05-12T10:28:07.816Z,15532
2018-05-12T10:29:17.562Z,16348
2018-05-12T10:30:27.587Z,19328
2018-05-12T10:31:37.682Z,21696
2018-05-12T10:32:47.434Z,20352
2018-05-12T10:33:57.186Z,17504
2018-05-12T10:35:06.666Z,16060
2018-05-12T10:36:16.419Z,17056
2018-05-12T10:37:26.185Z,16960
2018-05-12T10:38:36.208Z,17600
2018-05-12T10:39:46.226Z,18528
2018-05-12T10:40:55.704Z,19040
2018-05-12T10:42:05.455Z,18560
2018-05-12T10:43:15.210Z,18112
2018-05-12T10:44:24.975Z,16328
2018-05-12T10:45:34.782Z,15844
2018-05-12T10:46:44.572Z,15968
2018-05-12T10:47:54.596Z,16460
2018-05-12T10:49:04.077Z,17664
2018-05-12T10:50:14.097Z,18592
2018-05-12T10:51:24.204Z,19552
2018-05-12T10:52:34.218Z,19808
2018-05-12T10:53:44.252Z,20256
2018-05-12T10:54:54.270Z,20768
2018-05-12T10:56:04.296Z,21184
2018-05-12T10:57:14.321Z,22368
2018-05-12T10:58:24.350Z,24448
2018-05-12T10:59:34.371Z,23520
2018-05-12T11:00:43.852Z,24256
2018-05-12T11:01:53.906Z,23040
2018-05-12T11:03:03.756Z,22528
2018-05-12T11:04:12.998Z,22144
2018-05-12T11:05:22.756Z,22816
2018-05-12T11:06:32.777Z,24448
2018-05-12T11:07:42.801Z,26272
2018-05-12T11:08:52.549Z,28224
2018-05-12T11:10:02.572Z,28960
2018-05-12T11:11:12.070Z,29056
2018-05-12T11:12:22.096Z,27584
2018-05-12T11:13:31.858Z,23968
2018-05-12T11:14:41.880Z,22048
2018-05-12T11:15:52.288Z,22304
2018-05-12T11:17:02.469Z,21888
2018-05-12T11:18:12.554Z,20832
2018-05-12T11:19:22.585Z,21184
2018-05-12T11:20:32.605Z,22400
2018-05-12T11:21:42.738Z,24800
2018-05-12T11:22:52.602Z,23456
2018-05-12T11:24:02.453Z,20192
2018-05-12T11:25:12.202Z,18944
2018-05-12T11:26:21.957Z,18560
2018-05-12T11:27:31.973Z,18816
2018-05-12T11:28:41.727Z,19552
2018-05-12T11:29:50.675Z,20448
2018-05-12T11:31:00.696Z,19680
2018-05-12T11:32:10.306Z,19584
2018-05-12T11:33:20.065Z,18528
2018-05-12T11:34:29.546Z,17728
2018-05-12T11:35:39.645Z,18592
2018-05-12T11:36:49.126Z,20000
2018-05-12T11:37:59.144Z,23680
2018-05-12T11:39:08.898Z,23872
2018-05-12T11:40:18.386Z,33728
2018-05-12T11:41:28.411Z,23424
2018-05-12T11:42:38.448Z,21056
2018-05-12T11:43:48.474Z,20896
2018-05-12T11:44:58.216Z,21440
2018-05-12T11:46:07.709Z,24672
2018-05-12T11:47:17.202Z,22880
2018-05-12T11:48:26.957Z,20224
2018-05-12T11:49:36.993Z,19744
2018-05-12T11:50:47.011Z,19552
2018-05-12T11:51:57.031Z,20064
2018-05-12T11:53:07.052Z,22496
2018-05-12T11:54:16.995Z,21952
2018-05-12T11:55:27.020Z,21728
2018-05-12T11:56:36.778Z,26720
2018-05-12T11:57:46.533Z,24544
2018-05-12T11:58:56.288Z,27328
2018-05-12T12:00:06.041Z,30208
2018-05-12T12:01:15.790Z,28864
2018-05-12T12:02:25.623Z,35328
2018-05-12T12:03:35.537Z,30144
2018-05-12T12:04:45.311Z,28832
2018-05-12T12:05:55.060Z,25184
2018-05-12T12:07:05.079Z,26976
2018-05-12T12:08:15.099Z,31808
2018-05-12T12:09:24.902Z,31296
2018-05-12T12:10:34.121Z,26816
2018-05-12T12:11:44.142Z,24512
2018-05-12T12:12:54.169Z,34336
2018-05-12T12:14:03.922Z,31744
2018-05-12T12:15:13.144Z,38944
2018-05-12T12:16:22.683Z,43616
2018-05-12T12:17:32.431Z,30400
2018-05-12T12:18:42.451Z,36224
2018-05-12T12:19:52.471Z,38016
2018-05-12T12:21:02.502Z,38944
2018-05-12T12:22:12.268Z,41984
2018-05-12T12:23:21.756Z,45664
2018-05-12T12:24:31.241Z,49568
2018-05-12T12:25:40.996Z,45632
2018-05-12T12:26:50.507Z,52000
2018-05-12T12:28:00.268Z,75488
2018-05-12T12:29:10.295Z,55392
2018-05-12T12:30:20.320Z,54016
2018-05-12T12:31:30.343Z,37952
2018-05-12T12:32:40.105Z,22944
2018-05-12T12:33:49.327Z,19488
2018-05-12T12:34:59.354Z,22304
2018-05-12T12:36:08.883Z,18880
2018-05-12T12:37:18.380Z,18560
2018-05-12T12:38:27.879Z,19712
2018-05-12T12:39:37.898Z,51680
2018-05-12T12:40:47.925Z,22848
2018-05-12T12:41:57.685Z,19328
2018-05-12T12:43:07.439Z,18464
2018-05-12T12:44:16.657Z,19520
2018-05-12T12:45:26.414Z,20544
2018-05-12T12:46:36.434Z,21952
2018-05-12T12:47:46.466Z,21920
2018-05-12T12:48:56.497Z,23360
2018-05-12T12:50:06.263Z,31008
2018-05-12T12:51:16.015Z,26336
2018-05-12T12:52:25.773Z,28736
2018-05-12T12:53:35.530Z,30400
2018-05-12T12:54:45.285Z,32704
2018-05-12T12:55:55.033Z,28864
2018-05-12T12:57:05.064Z,29344
2018-05-12T12:58:14.896Z,28896
2018-05-12T12:59:24.678Z,24288
2018-05-12T13:00:34.697Z,21952
2018-05-12T13:01:44.720Z,22688
2018-05-12T13:02:54.210Z,21792
2018-05-12T13:04:03.969Z,22240
2018-05-12T13:05:13.457Z,23040
2018-05-12T13:06:23.479Z,24416
2018-05-12T13:07:33.508Z,25600
2018-05-12T13:08:43.538Z,23200
2018-05-12T13:09:53.558Z,21856
2018-05-12T13:11:03.581Z,19040
2018-05-12T13:12:13.073Z,16000
2018-05-12T13:13:22.826Z,15312
2018-05-12T13:14:32.912Z,16100
2018-05-12T13:15:42.670Z,16320
2018-05-12T13:16:52.702Z,17216
2018-05-12T13:18:02.724Z,18112
2018-05-12T13:19:12.491Z,23872
2018-05-12T13:20:22.617Z,35584
2018-05-12T13:21:32.371Z,28000
2018-05-12T13:22:42.127Z,26272
2018-05-12T13:23:51.877Z,30176
2018-05-12T13:25:01.359Z,50144
2018-05-12T13:26:11.385Z,25184
2018-05-12T13:27:21.139Z,24544
2018-05-12T13:28:31.164Z,21760
2018-05-12T13:29:41.188Z,19008
2018-05-12T13:30:50.941Z,17664
2018-05-12T13:32:00.973Z,16672
2018-05-12T13:33:10.464Z,16092
2018-05-12T13:34:20.230Z,15824
2018-05-12T13:35:29.714Z,16192
2018-05-12T13:36:39.732Z,21952
2018-05-12T13:37:49.747Z,19424
2018-05-12T13:38:59.766Z,20160
2018-05-12T13:40:09.246Z,21696
2018-05-12T13:41:18.758Z,22112
2018-05-12T13:42:28.782Z,21952
2018-05-12T13:43:38.805Z,21632
2018-05-12T13:44:48.891Z,21376
2018-05-12T13:45:58.646Z,22016
2018-05-12T13:47:08.399Z,19968
2018-05-12T13:48:18.156Z,18688
2018-05-12T13:49:28.179Z,18080
2018-05-12T13:50:38.213Z,17312
2018-05-12T13:51:47.698Z,16960
2018-05-12T13:52:57.447Z,16864
2018-05-12T13:54:07.199Z,16768
2018-05-12T13:55:16.960Z,17312
2018-05-12T13:56:26.991Z,18176
2018-05-12T13:57:37.018Z,35872
2018-05-12T13:58:47.044Z,18592
2018-05-12T13:59:57.061Z,19552
2018-05-12T14:01:06.922Z,29088
2018-05-12T14:02:16.414Z,21088
2018-05-12T14:03:25.648Z,21344
2018-05-12T14:04:35.664Z,19392
2018-05-12T14:05:45.688Z,18656
2018-05-12T14:06:55.436Z,18848
2018-05-12T14:08:04.926Z,19104
2018-05-12T14:09:14.677Z,18688
2018-05-12T14:10:24.698Z,22688
2018-05-12T14:11:34.448Z,19200
2018-05-12T14:12:44.196Z,19552
2018-05-12T14:13:53.685Z,75392
2018-05-12T14:15:03.710Z,28768
2018-05-12T14:16:14.158Z,51264
2018-05-12T14:17:24.198Z,48160
2018-05-12T14:18:33.948Z,27328
2018-05-12T14:19:43.705Z,35168
2018-05-12T14:20:53.726Z,29568
2018-05-12T14:22:03.490Z,28128
2018-05-12T14:23:13.511Z,30560
2018-05-12T14:24:23.318Z,25120
2018-05-12T14:25:33.340Z,25056
2018-05-12T14:26:43.098Z,22496
2018-05-12T14:27:53.117Z,21248
2018-05-12T14:29:03.133Z,20640
2018-05-12T14:30:12.626Z,21184
2018-05-12T14:31:22.114Z,21952
2018-05-12T14:32:32.159Z,22688
2018-05-12T14:33:41.938Z,24352
2018-05-12T14:34:51.968Z,25696
2018-05-12T14:36:01.999Z,39680
2018-05-12T14:37:12.030Z,26560
2018-05-12T14:38:21.521Z,29728
2018-05-12T14:39:31.541Z,30208
2018-05-12T14:40:41.562Z,32768
2018-05-12T14:41:51.586Z,31008
2018-05-12T14:43:01.341Z,29280
2018-05-12T14:44:11.131Z,27360
2018-05-12T14:45:21.154Z,30176
2018-05-12T14:46:31.179Z,56768
2018-05-12T14:47:40.664Z,21696
2018-05-12T14:48:50.693Z,20480
2018-05-12T14:50:00.715Z,20256
2018-05-12T14:51:10.463Z,22272
2018-05-12T14:52:20.218Z,21888
2018-05-12T14:53:29.977Z,23296
2018-05-12T14:54:39.736Z,25472
2018-05-12T14:55:49.493Z,34016
2018-05-12T14:56:59.249Z,30880
2018-05-12T14:58:09.012Z,28416
2018-05-12T14:59:19.045Z,68672
2018-05-12T15:00:28.802Z,44480
2018-05-12T15:01:38.559Z,85152
2018-05-12T15:02:48.587Z,34752
2018-05-12T15:03:58.346Z,86048
2018-05-12T15:05:08.376Z,84416
2018-05-12T15:06:17.862Z,58208
2018-05-12T15:07:27.619Z,63488
2018-05-12T15:08:37.373Z,79520
2018-05-12T15:09:47.397Z,58240
2018-05-12T15:10:57.154Z,57760
2018-05-12T15:12:06.641Z,40064
2018-05-12T15:13:16.670Z,40256
2018-05-12T15:14:26.702Z,42848
2018-05-12T15:15:36.198Z,25024
2018-05-12T15:16:46.224Z,34048
2018-05-12T15:17:55.983Z,38048
2018-05-12T15:19:06.011Z,63616
2018-05-12T15:20:16.054Z,71008
2018-05-12T15:21:26.378Z,78848
2018-05-12T15:22:36.557Z,64960
2018-05-12T15:23:46.319Z,76544
2018-05-12T15:24:56.354Z,67552
2018-05-12T15:26:06.381Z,72736
2018-05-12T15:27:16.423Z,69472
2018-05-12T15:28:26.183Z,61312
2018-05-12T15:29:36.239Z,69440
2018-05-12T15:30:46.349Z,67712
2018-05-12T15:31:56.107Z,67328
2018-05-12T15:33:05.877Z,58176
2018-05-12T15:34:15.638Z,28352
2018-05-12T15:35:25.670Z,20576